createdAt,value
2023-03-30T00:00:56.710Z,7.63
2023-03-30T00:03:23.709Z,6.83
2023-03-30T00:05:56.623Z,6.43
2023-03-30T00:08:30.287Z,5.33
2023-03-30T00:11:08.454Z,5.33
2023-03-30T00:13:39.140Z,6.43
2023-03-30T00:16:07.797Z,7.80
2023-03-30T00:18:36.852Z,5.80
2023-03-30T00:21:04.559Z,5.13
2023-03-30T00:23:35.295Z,3.37
2023-03-30T00:26:02.109Z,4.20
2023-03-30T00:28:31.040Z,5.27
2023-03-30T00:31:00.666Z,4.90
2023-03-30T00:33:41.499Z,3.50
2023-03-30T00:36:12.626Z,3.23
2023-03-30T00:38:40.322Z,6.10
2023-03-30T00:41:07.395Z,4.13
2023-03-30T00:43:35.480Z,6.83
2023-03-30T00:46:02.459Z,7.07
2023-03-30T00:48:34.590Z,4.30
2023-03-30T00:51:07.515Z,4.40
2023-03-30T00:53:47.211Z,5.70
2023-03-30T00:56:16.641Z,9.80
2023-03-30T00:58:45.284Z,5.20
2023-03-30T01:01:15.114Z,5.93
2023-03-30T01:03:45.999Z,4.63
2023-03-30T01:06:14.395Z,5.37
2023-03-30T01:08:42.526Z,4.10
2023-03-30T01:11:09.834Z,4.23
2023-03-30T01:13:48.557Z,6.97
2023-03-30T01:16:31.230Z,7.27
2023-03-30T01:19:16.138Z,4.07
2023-03-30T01:22:07.927Z,5.73
2023-03-30T01:25:08.382Z,3.93
2023-03-30T01:28:09.793Z,6.60
2023-03-30T01:30:46.194Z,4.27
2023-03-30T01:33:50.850Z,5.03
2023-03-30T01:36:31.678Z,4.90
2023-03-30T01:39:29.339Z,4.03
2023-03-30T01:42:02.692Z,3.97
2023-03-30T01:44:48.641Z,3.97
2023-03-30T01:47:29.964Z,5.57
2023-03-30T01:50:11.784Z,3.93
2023-03-30T01:52:42.548Z,4.40
2023-03-30T01:55:33.416Z,7.40
2023-03-30T01:58:08.288Z,4.07
2023-03-30T02:00:38.332Z,6.50
2023-03-30T02:03:19.164Z,6.87
2023-03-30T02:05:49.236Z,2.70
2023-03-30T02:08:20.060Z,2.83
2023-03-30T02:10:49.106Z,3.20
2023-03-30T02:13:26.699Z,2.80
2023-03-30T02:16:07.201Z,3.40
2023-03-30T02:18:34.119Z,5.57
2023-03-30T02:21:02.197Z,4.53
2023-03-30T02:23:35.646Z,2.73
2023-03-30T02:26:02.657Z,1.87
2023-03-30T02:28:29.388Z,5.40
2023-03-30T02:30:56.811Z,3.27
2023-03-30T02:33:33.720Z,3.17
2023-03-30T02:36:16.054Z,3.47
2023-03-30T02:39:05.177Z,2.53
2023-03-30T02:41:31.941Z,3.27
2023-03-30T02:44:01.683Z,3.10
2023-03-30T02:46:43.416Z,4.37
2023-03-30T02:49:29.116Z,4.43
2023-03-30T02:52:10.094Z,2.83
2023-03-30T02:54:55.115Z,5.90
2023-03-30T02:57:45.818Z,4.40
2023-03-30T03:00:18.715Z,3.33
2023-03-30T03:02:52.753Z,2.97
2023-03-30T03:05:20.746Z,5.07
2023-03-30T03:07:48.258Z,4.93
2023-03-30T03:10:15.050Z,2.60
2023-03-30T03:12:44.545Z,4.37
2023-03-30T03:15:12.555Z,6.50
2023-03-30T03:17:39.334Z,4.10
2023-03-30T03:20:10.392Z,4.40
2023-03-30T03:22:37.221Z,6.50
2023-03-30T03:25:05.107Z,2.80
2023-03-30T03:27:31.975Z,3.33
2023-03-30T03:29:58.909Z,2.07
2023-03-30T03:32:25.688Z,4.60
2023-03-30T03:34:52.432Z,4.50
2023-03-30T03:37:19.391Z,3.43
2023-03-30T03:39:46.666Z,2.83
2023-03-30T03:42:13.562Z,6.07
2023-03-30T03:44:40.640Z,4.37
2023-03-30T03:47:07.564Z,3.57
2023-03-30T03:49:34.276Z,5.40
2023-03-30T03:52:00.989Z,2.20
2023-03-30T03:54:27.709Z,3.63
2023-03-30T03:56:54.478Z,3.57
2023-03-30T03:59:21.248Z,3.40
2023-03-30T04:01:48.140Z,5.33
2023-03-30T04:04:14.918Z,4.27
2023-03-30T04:06:41.666Z,4.57
2023-03-30T04:09:08.378Z,2.80
2023-03-30T04:11:35.169Z,4.13
2023-03-30T04:14:01.901Z,4.23
2023-03-30T04:16:29.001Z,3.73
2023-03-30T04:18:57.611Z,3.87
2023-03-30T04:21:27.898Z,6.83
2023-03-30T04:23:54.631Z,6.80
2023-03-30T04:26:21.420Z,7.00
2023-03-30T04:28:48.134Z,6.63
2023-03-30T04:31:14.943Z,6.00
2023-03-30T04:33:55.019Z,6.43
2023-03-30T04:36:22.094Z,4.80
2023-03-30T04:39:11.948Z,5.80
2023-03-30T04:41:41.806Z,7.13
2023-03-30T04:44:10.406Z,7.57
2023-03-30T04:46:37.544Z,6.70
2023-03-30T04:49:07.228Z,3.83
2023-03-30T04:51:33.980Z,4.93
2023-03-30T04:54:02.302Z,5.70
2023-03-30T04:56:31.880Z,7.53
2023-03-30T04:58:58.603Z,4.93
2023-03-30T05:01:25.448Z,5.23
2023-03-30T05:03:55.247Z,4.40
2023-03-30T05:06:22.055Z,5.60
2023-03-30T05:08:48.956Z,10.27
2023-03-30T05:11:18.546Z,7.13
2023-03-30T05:13:45.537Z,4.17
2023-03-30T05:16:12.544Z,8.07
2023-03-30T05:18:39.332Z,7.77
2023-03-30T05:21:06.744Z,11.23
2023-03-30T05:23:33.563Z,12.90
2023-03-30T05:26:00.444Z,5.97
2023-03-30T05:28:27.222Z,6.63
2023-03-30T05:30:57.001Z,13.53
2023-03-30T05:33:24.475Z,7.30
2023-03-30T05:35:51.976Z,8.57
2023-03-30T05:38:31.474Z,8.80
2023-03-30T05:40:58.291Z,7.73
2023-03-30T05:43:24.998Z,5.13
2023-03-30T05:45:51.851Z,6.13
2023-03-30T05:48:18.854Z,6.67
2023-03-30T05:50:48.268Z,8.07
2023-03-30T05:53:15.708Z,8.77
2023-03-30T05:55:49.599Z,9.60
2023-03-30T05:58:16.961Z,6.50
2023-03-30T06:00:44.804Z,7.47
2023-03-30T06:03:12.676Z,6.13
2023-03-30T06:05:41.830Z,8.53
2023-03-30T06:08:09.954Z,10.53
2023-03-30T06:10:37.484Z,11.87
2023-03-30T06:13:04.884Z,10.43
2023-03-30T06:15:31.693Z,8.10
2023-03-30T06:17:59.352Z,8.57
2023-03-30T06:20:26.208Z,10.53
2023-03-30T06:22:53.040Z,8.33
2023-03-30T06:25:24.634Z,13.00
2023-03-30T06:27:52.135Z,7.80
2023-03-30T06:30:21.135Z,7.63
2023-03-30T06:32:47.918Z,8.57
2023-03-30T06:35:15.740Z,9.27
2023-03-30T06:37:42.760Z,10.00
2023-03-30T06:40:13.507Z,7.77
2023-03-30T06:42:41.589Z,11.30
2023-03-30T06:45:09.219Z,9.17
2023-03-30T06:47:37.162Z,5.57
2023-03-30T06:50:05.015Z,11.97
2023-03-30T06:52:35.522Z,11.33
2023-03-30T06:55:03.308Z,12.07
2023-03-30T06:57:30.700Z,11.13
2023-03-30T06:59:57.736Z,9.87
2023-03-30T07:02:25.729Z,14.43
2023-03-30T07:04:52.640Z,10.63
2023-03-30T07:07:19.853Z,12.93
2023-03-30T07:09:49.466Z,8.63
2023-03-30T07:12:16.477Z,9.00
2023-03-30T07:14:43.166Z,11.27
2023-03-30T07:17:10.349Z,10.40
2023-03-30T07:19:37.266Z,9.50
2023-03-30T07:22:04.167Z,11.97
2023-03-30T07:24:31.544Z,9.87
2023-03-30T07:26:58.417Z,11.90
2023-03-30T07:29:27.073Z,12.03
2023-03-30T07:31:59.001Z,19.17
2023-03-30T07:34:25.847Z,11.37
2023-03-30T07:36:54.459Z,10.47
2023-03-30T07:39:21.770Z,8.20
2023-03-30T07:41:48.491Z,14.50
2023-03-30T07:44:15.517Z,12.40
2023-03-30T07:46:42.383Z,15.00
2023-03-30T07:49:09.229Z,16.00
2023-03-30T07:51:36.122Z,11.87
2023-03-30T07:54:03.914Z,11.40
2023-03-30T07:56:34.968Z,13.53
2023-03-30T07:59:04.615Z,13.10
2023-03-30T08:01:35.272Z,9.47
2023-03-30T08:04:02.955Z,11.77
2023-03-30T08:06:30.370Z,8.43
2023-03-30T08:08:57.224Z,9.80
2023-03-30T08:11:24.020Z,13.93
2023-03-30T08:13:50.809Z,16.73
2023-03-30T08:16:17.587Z,13.60
2023-03-30T08:18:44.361Z,15.10
2023-03-30T08:21:11.523Z,12.53
2023-03-30T08:23:38.360Z,15.43
2023-03-30T08:26:05.305Z,12.07
2023-03-30T08:28:32.210Z,15.33
2023-03-30T08:31:07.135Z,13.50
2023-03-30T08:33:35.077Z,14.77
2023-03-30T08:36:02.051Z,8.43
2023-03-30T08:38:29.352Z,14.63
2023-03-30T08:40:56.360Z,15.10
2023-03-30T08:43:52.850Z,13.50
2023-03-30T08:46:24.779Z,12.03
2023-03-30T08:48:53.671Z,10.20
2023-03-30T08:51:23.522Z,11.13
2023-03-30T08:54:01.465Z,16.97
2023-03-30T08:56:33.220Z,14.73
2023-03-30T08:59:27.137Z,13.03
2023-03-30T09:02:03.258Z,11.40
2023-03-30T09:04:48.984Z,12.33
2023-03-30T09:07:21.896Z,11.20
2023-03-30T09:09:51.826Z,11.33
2023-03-30T09:12:44.485Z,12.23
2023-03-30T09:15:25.639Z,11.10
2023-03-30T09:17:56.134Z,18.53
2023-03-30T09:20:27.044Z,9.13
2023-03-30T09:22:55.853Z,17.23
2023-03-30T09:25:47.566Z,14.60
2023-03-30T09:28:41.399Z,9.77
2023-03-30T09:31:22.380Z,12.63
2023-03-30T09:34:08.472Z,14.53
2023-03-30T09:37:00.192Z,18.30
2023-03-30T09:39:30.445Z,13.93
2023-03-30T09:42:34.238Z,18.83
2023-03-30T09:45:27.506Z,17.43
2023-03-30T09:47:54.670Z,15.37
2023-03-30T09:50:28.527Z,18.30
2023-03-30T09:53:04.977Z,18.07
2023-03-30T09:55:34.875Z,17.77
2023-03-30T09:58:26.323Z,19.73
2023-03-30T10:01:13.993Z,11.00
2023-03-30T10:03:42.641Z,15.10
2023-03-30T10:06:13.278Z,20.03
2023-03-30T10:08:50.659Z,15.63
2023-03-30T10:11:30.448Z,18.23
2023-03-30T10:13:58.734Z,16.93
2023-03-30T10:16:28.723Z,13.70
2023-03-30T10:19:04.041Z,19.70
2023-03-30T10:21:36.634Z,15.20
2023-03-30T10:24:14.625Z,14.83
2023-03-30T10:26:46.494Z,14.73
2023-03-30T10:29:16.671Z,15.20
2023-03-30T10:31:46.269Z,12.27
2023-03-30T10:34:20.843Z,14.97
2023-03-30T10:36:53.256Z,24.13
2023-03-30T10:39:30.255Z,16.77
2023-03-30T10:42:00.172Z,13.97
2023-03-30T10:44:44.981Z,17.17
2023-03-30T10:47:14.587Z,16.87
2023-03-30T10:49:44.186Z,15.70
2023-03-30T10:52:52.287Z,18.03
2023-03-30T10:55:48.397Z,19.57
2023-03-30T10:58:52.930Z,13.43
2023-03-30T11:01:39.526Z,16.43
2023-03-30T11:04:23.326Z,12.87
2023-03-30T11:06:54.533Z,11.40
2023-03-30T11:09:29.467Z,16.60
2023-03-30T11:12:11.091Z,15.37
2023-03-30T11:14:40.580Z,12.17
2023-03-30T11:17:19.741Z,13.13
2023-03-30T11:19:51.977Z,15.07
2023-03-30T11:22:31.367Z,14.03
2023-03-30T11:25:00.166Z,12.83
2023-03-30T11:27:43.435Z,12.50
2023-03-30T11:30:17.173Z,13.03
2023-03-30T11:32:56.499Z,12.40
2023-03-30T11:35:41.329Z,9.63
2023-03-30T11:38:35.388Z,7.83
2023-03-30T11:41:11.994Z,15.13
2023-03-30T11:43:38.948Z,9.77
2023-03-30T11:46:20.477Z,11.27
2023-03-30T11:49:03.860Z,14.20
2023-03-30T11:51:52.984Z,10.67
2023-03-30T11:54:59.784Z,12.03
2023-03-30T11:57:41.126Z,14.20
2023-03-30T12:00:23.377Z,11.70
2023-03-30T12:03:22.649Z,9.93
2023-03-30T12:06:27.056Z,11.10
2023-03-30T12:09:12.698Z,8.90
2023-03-30T12:12:03.763Z,13.17
2023-03-30T12:14:47.260Z,10.73
2023-03-30T12:17:37.556Z,11.70
2023-03-30T12:20:07.832Z,7.23
2023-03-30T12:22:52.566Z,10.10
2023-03-30T12:25:39.162Z,8.03
2023-03-30T12:28:15.026Z,12.33
2023-03-30T12:30:57.456Z,11.40
2023-03-30T12:33:46.223Z,9.33
2023-03-30T12:36:31.176Z,8.27
2023-03-30T12:41:51.232Z,11.73
2023-03-30T12:44:25.348Z,10.10
2023-03-30T12:47:27.910Z,16.10
2023-03-30T12:50:18.795Z,11.20
2023-03-30T12:52:54.646Z,13.63
2023-03-30T12:55:29.468Z,12.50
2023-03-30T12:58:17.368Z,14.10
2023-03-30T13:00:50.274Z,17.40
2023-03-30T13:03:50.012Z,10.27
2023-03-30T13:06:48.648Z,13.33
2023-03-30T13:09:15.481Z,11.40
2023-03-30T13:11:49.280Z,17.40
2023-03-30T13:14:31.204Z,13.40
2023-03-30T13:17:01.119Z,12.40
2023-03-30T13:19:42.087Z,12.53
2023-03-30T13:22:11.640Z,9.67
2023-03-30T13:25:20.669Z,14.57
2023-03-30T13:27:56.602Z,12.73
2023-03-30T13:30:29.318Z,10.47
2023-03-30T13:32:58.966Z,16.93
2023-03-30T13:35:40.999Z,11.80
2023-03-30T13:38:16.958Z,9.13
2023-03-30T13:41:04.695Z,10.33
2023-03-30T13:43:39.360Z,10.23
2023-03-30T13:46:27.410Z,15.03
2023-03-30T13:49:15.728Z,12.00
2023-03-30T13:51:43.107Z,15.93
2023-03-30T13:54:21.909Z,13.63
2023-03-30T13:57:11.155Z,16.53
2023-03-30T13:59:47.077Z,15.87
2023-03-30T14:02:19.114Z,15.93
2023-03-30T14:04:45.961Z,13.93
2023-03-30T14:07:19.140Z,11.27
2023-03-30T14:10:06.500Z,9.70
2023-03-30T14:12:35.598Z,10.33
2023-03-30T14:15:26.025Z,11.37
2023-03-30T14:17:56.936Z,11.53
2023-03-30T14:20:29.571Z,6.77
2023-03-30T14:22:58.581Z,12.33
2023-03-30T14:25:31.757Z,12.30
2023-03-30T14:28:07.639Z,12.27
2023-03-30T14:30:37.207Z,10.50
2023-03-30T14:33:13.331Z,9.20
2023-03-30T14:35:59.320Z,9.63
2023-03-30T14:38:30.278Z,8.23
2023-03-30T14:41:00.434Z,11.53
2023-03-30T14:43:31.155Z,7.67
2023-03-30T14:46:02.857Z,7.77
2023-03-30T14:48:35.353Z,10.00
2023-03-30T14:51:02.982Z,13.80
2023-03-30T14:53:31.155Z,14.17
2023-03-30T14:56:00.696Z,5.80
2023-03-30T14:58:31.200Z,9.13
2023-03-30T15:01:00.327Z,12.10
2023-03-30T15:03:34.333Z,8.87
2023-03-30T15:06:02.747Z,7.57
2023-03-30T15:08:36.594Z,7.17
2023-03-30T15:11:08.614Z,8.90
2023-03-30T15:13:54.792Z,10.30
2023-03-30T15:16:28.985Z,5.33
2023-03-30T15:19:28.088Z,6.70
2023-03-30T15:21:58.632Z,7.90
2023-03-30T15:24:29.410Z,6.53
2023-03-30T15:27:01.063Z,9.50
2023-03-30T15:29:30.392Z,8.40
2023-03-30T15:32:21.697Z,7.57
2023-03-30T15:35:16.551Z,9.10
2023-03-30T15:37:54.986Z,8.07
2023-03-30T15:40:36.093Z,7.13
2023-03-30T15:43:18.209Z,6.77
2023-03-30T15:45:48.947Z,10.77
2023-03-30T15:48:21.965Z,8.13
2023-03-30T15:50:58.022Z,12.80
2023-03-30T15:53:48.506Z,9.37
2023-03-30T15:56:34.864Z,11.37
2023-03-30T15:59:01.891Z,12.00
2023-03-30T16:02:02.923Z,13.63
2023-03-30T16:04:32.101Z,11.73
2023-03-30T16:06:58.848Z,8.33
2023-03-30T16:09:25.697Z,12.57
2023-03-30T16:11:52.654Z,11.10
2023-03-30T16:14:20.668Z,14.43
2023-03-30T16:16:48.216Z,12.30
2023-03-30T16:19:18.188Z,11.13
2023-03-30T16:21:45.651Z,13.63
2023-03-30T16:24:12.836Z,11.80
2023-03-30T16:26:42.710Z,10.80
2023-03-30T16:29:21.559Z,13.13
2023-03-30T16:31:49.588Z,9.53
2023-03-30T16:34:16.751Z,13.57
2023-03-30T16:36:44.103Z,9.27
2023-03-30T16:39:27.340Z,12.50
2023-03-30T16:41:55.023Z,11.53
2023-03-30T16:44:23.871Z,9.37
2023-03-30T16:46:51.616Z,7.50
2023-03-30T16:49:24.212Z,9.23
2023-03-30T16:51:53.778Z,9.47
2023-03-30T16:54:31.161Z,7.70
2023-03-30T16:56:59.002Z,10.13
2023-03-30T16:59:29.038Z,14.30
2023-03-30T17:01:56.270Z,9.47
2023-03-30T17:04:23.304Z,10.13
2023-03-30T17:06:50.238Z,7.63
2023-03-30T17:09:19.527Z,14.27
2023-03-30T17:11:47.601Z,11.23
2023-03-30T17:14:14.874Z,8.90
2023-03-30T17:16:42.321Z,11.03
2023-03-30T17:19:13.857Z,7.00
2023-03-30T17:21:42.956Z,13.43
2023-03-30T17:24:11.312Z,8.37
2023-03-30T17:26:41.649Z,7.67
2023-03-30T17:29:09.785Z,5.83
2023-03-30T17:31:45.856Z,7.87
2023-03-30T17:34:13.297Z,7.43
2023-03-30T17:36:40.111Z,12.37
2023-03-30T17:39:07.283Z,6.70
2023-03-30T17:41:34.288Z,6.50
2023-03-30T17:44:01.155Z,6.50
2023-03-30T17:46:28.274Z,7.63
2023-03-30T17:48:55.269Z,10.27
2023-03-30T17:51:22.133Z,7.60
2023-03-30T17:53:48.959Z,6.80
2023-03-30T17:56:15.849Z,6.23
2023-03-30T17:58:42.823Z,8.70
2023-03-30T18:01:09.971Z,8.70
2023-03-30T18:03:39.145Z,6.73
2023-03-30T18:06:06.771Z,5.80
2023-03-30T18:08:33.696Z,9.63
2023-03-30T18:11:01.675Z,5.50
2023-03-30T18:13:29.498Z,6.23
2023-03-30T18:15:58.746Z,8.13
2023-03-30T18:18:29.321Z,8.50
2023-03-30T18:21:04.591Z,9.50
2023-03-30T18:23:34.741Z,9.80
2023-03-30T18:26:03.809Z,8.13
2023-03-30T18:28:31.538Z,6.27
2023-03-30T18:31:02.077Z,11.70
2023-03-30T18:33:28.892Z,9.60
2023-03-30T18:36:08.058Z,8.30
2023-03-30T18:38:35.267Z,8.77
2023-03-30T18:41:04.821Z,9.13
2023-03-30T18:43:32.048Z,7.90
2023-03-30T18:46:01.980Z,8.77
2023-03-30T18:48:29.587Z,7.40
2023-03-30T18:50:56.807Z,10.17
2023-03-30T18:53:26.115Z,11.40
2023-03-30T18:56:01.694Z,11.07
2023-03-30T18:58:33.430Z,8.57
2023-03-30T19:01:01.455Z,9.40
2023-03-30T19:03:30.001Z,10.37
2023-03-30T19:05:56.972Z,10.23
2023-03-30T19:08:26.106Z,8.70
2023-03-30T19:10:55.247Z,13.47
2023-03-30T19:13:23.377Z,8.07
2023-03-30T19:15:51.230Z,6.27
2023-03-30T19:18:18.708Z,12.97
2023-03-30T19:20:45.968Z,8.03
2023-03-30T19:23:15.618Z,11.00
2023-03-30T19:25:44.118Z,8.67
2023-03-30T19:28:12.504Z,11.70
2023-03-30T19:30:40.185Z,9.30
2023-03-30T19:33:12.804Z,14.07
2023-03-30T19:35:41.401Z,9.33
2023-03-30T19:38:08.598Z,14.50
2023-03-30T19:40:37.876Z,12.40
2023-03-30T19:43:04.761Z,10.70
2023-03-30T19:45:34.605Z,8.43
2023-03-30T19:48:01.396Z,12.03
2023-03-30T19:50:30.133Z,14.47
2023-03-30T19:52:57.771Z,16.10
2023-03-30T19:55:26.263Z,8.87
2023-03-30T19:57:53.181Z,7.73
2023-03-30T20:00:20.761Z,9.83
2023-03-30T20:02:53.040Z,17.50
2023-03-30T20:05:21.484Z,14.47
2023-03-30T20:07:48.776Z,10.33
2023-03-30T20:10:19.256Z,11.97
2023-03-30T20:12:47.019Z,12.63
2023-03-30T20:15:14.515Z,8.90
2023-03-30T20:17:42.129Z,15.13
2023-03-30T20:20:12.655Z,13.27
2023-03-30T20:22:42.414Z,10.90
2023-03-30T20:25:11.885Z,14.13
2023-03-30T20:27:38.694Z,13.30
2023-03-30T20:30:07.525Z,12.07
2023-03-30T20:32:35.501Z,13.00
2023-03-30T20:35:02.723Z,8.43
2023-03-30T20:37:29.685Z,13.10
2023-03-30T20:40:06.498Z,8.90
2023-03-30T20:42:33.612Z,10.50
2023-03-30T20:45:01.318Z,11.10
2023-03-30T20:47:30.455Z,9.57
2023-03-30T20:49:58.434Z,15.33
2023-03-30T20:52:25.882Z,10.40
2023-03-30T20:54:52.990Z,12.37
2023-03-30T20:57:21.170Z,12.23
2023-03-30T20:59:48.759Z,19.03
2023-03-30T21:02:16.589Z,11.60
2023-03-30T21:04:44.594Z,14.80
2023-03-30T21:07:12.371Z,9.30
2023-03-30T21:09:42.681Z,10.50
2023-03-30T21:12:12.018Z,7.47
2023-03-30T21:14:38.880Z,11.73
2023-03-30T21:17:05.799Z,11.90
2023-03-30T21:19:33.133Z,12.00
2023-03-30T21:22:01.162Z,8.97
2023-03-30T21:24:28.389Z,15.13
2023-03-30T21:26:55.166Z,10.37
2023-03-30T21:29:22.678Z,7.30
2023-03-30T21:31:49.960Z,8.80
2023-03-30T21:34:19.824Z,11.07
2023-03-30T21:36:46.862Z,7.00
2023-03-30T21:39:13.972Z,8.17
2023-03-30T21:41:40.804Z,13.43
2023-03-30T21:44:13.361Z,10.10
2023-03-30T21:46:40.422Z,10.17
2023-03-30T21:49:07.271Z,13.07
2023-03-30T21:51:33.988Z,9.40
2023-03-30T21:54:00.799Z,11.03
2023-03-30T21:56:29.977Z,8.63
2023-03-30T21:58:57.525Z,11.17
2023-03-30T22:01:25.161Z,8.23
2023-03-30T22:03:53.450Z,11.07
2023-03-30T22:06:23.329Z,10.47
2023-03-30T22:08:50.655Z,11.83
2023-03-30T22:11:22.758Z,12.33
2023-03-30T22:13:50.638Z,10.57
2023-03-30T22:16:25.914Z,9.47
2023-03-30T22:18:52.738Z,12.20
2023-03-30T22:21:23.725Z,9.30
2023-03-30T22:23:51.290Z,11.73
2023-03-30T22:26:18.034Z,12.77
2023-03-30T22:28:44.992Z,7.80
2023-03-30T22:31:14.025Z,7.23
2023-03-30T22:33:42.169Z,11.10
2023-03-30T22:36:21.042Z,9.40
2023-03-30T22:38:49.544Z,8.93
2023-03-30T22:41:18.675Z,8.10
2023-03-30T22:43:45.540Z,10.23
2023-03-30T22:46:12.649Z,13.20
2023-03-30T22:48:41.705Z,8.33
2023-03-30T22:51:08.764Z,14.80
2023-03-30T22:53:35.833Z,5.40
2023-03-30T22:56:02.798Z,7.23
2023-03-30T22:58:30.112Z,7.70
2023-03-30T23:01:10.648Z,10.77
2023-03-30T23:03:40.807Z,7.17
2023-03-30T23:06:09.217Z,8.53
2023-03-30T23:08:36.511Z,9.33
2023-03-30T23:11:06.419Z,7.17
2023-03-30T23:13:37.844Z,7.07
2023-03-30T23:16:08.925Z,10.83
2023-03-30T23:18:36.273Z,8.47
2023-03-30T23:21:06.798Z,7.83
2023-03-30T23:23:37.824Z,8.67
2023-03-30T23:26:09.182Z,12.43
2023-03-30T23:28:42.152Z,5.50
2023-03-30T23:31:17.772Z,9.40
2023-03-30T23:33:45.425Z,7.27
2023-03-30T23:36:19.292Z,10.37
2023-03-30T23:38:50.018Z,7.93
2023-03-30T23:41:19.181Z,9.10
2023-03-30T23:43:46.627Z,8.43
2023-03-30T23:46:14.386Z,7.67
2023-03-30T23:48:42.074Z,7.20
2023-03-30T23:51:09.273Z,8.70
2023-03-30T23:53:40.157Z,9.47
2023-03-30T23:56:12.881Z,11.50
2023-03-30T23:58:40.944Z,10.87
